createdAt,value
2018-05-09T00:01:35.257Z,94146.13
2018-05-09T00:04:01.688Z,94149.34
2018-05-09T00:06:28.139Z,94148.97
2018-05-09T00:08:54.526Z,94143.34
2018-05-09T00:11:20.900Z,94148.40
2018-05-09T00:13:47.256Z,94143.91
2018-05-09T00:16:13.618Z,94143.33
2018-05-09T00:18:40.056Z,94142.62
2018-05-09T00:21:06.481Z,94138.63
2018-05-09T00:23:33.205Z,94141.86
2018-05-09T00:25:59.837Z,94141.48
2018-05-09T00:28:26.471Z,94143.72
2018-05-09T00:30:52.986Z,94147.87
2018-05-09T00:33:19.405Z,94149.78
2018-05-09T00:35:45.921Z,94152.42
2018-05-09T00:38:12.332Z,94149.91
2018-05-09T00:40:38.715Z,94152.67
2018-05-09T00:43:05.044Z,94157.48
2018-05-09T00:45:31.476Z,94146.48
2018-05-09T00:47:58.004Z,94151.07
2018-05-09T00:50:24.397Z,94150.44
2018-05-09T00:52:50.821Z,94150.50
2018-05-09T00:55:17.210Z,94151.95
2018-05-09T00:57:43.609Z,94145.34
2018-05-09T01:00:10.004Z,94146.41
2018-05-09T01:02:36.452Z,94152.66
2018-05-09T01:05:02.836Z,94140.10
2018-05-09T01:07:29.438Z,94147.23
2018-05-09T01:09:55.780Z,94145.81
2018-05-09T01:12:22.117Z,94145.95
2018-05-09T01:14:48.671Z,94145.66
2018-05-09T01:17:15.030Z,94154.45
2018-05-09T01:19:41.478Z,94150.92
2018-05-09T01:22:07.825Z,94141.25
2018-05-09T01:24:34.166Z,94139.68
2018-05-09T01:27:01.347Z,94145.17
2018-05-09T01:29:27.724Z,94144.62
2018-05-09T01:31:54.072Z,94146.52
2018-05-09T01:34:20.419Z,94153.31
2018-05-09T01:36:46.773Z,94153.58
2018-05-09T01:39:13.104Z,94149.09
2018-05-09T01:41:39.441Z,94140.56
2018-05-09T01:44:05.806Z,94146.38
2018-05-09T01:46:32.161Z,94157.20
2018-05-09T01:48:58.560Z,94158.36
2018-05-09T01:51:24.988Z,94149.16
2018-05-09T01:53:51.364Z,94154.44
2018-05-09T01:56:17.761Z,94136.77
2018-05-09T01:58:44.229Z,94148.69
2018-05-09T02:01:10.554Z,94147.26
2018-05-09T02:03:36.895Z,94147.23
2018-05-09T02:06:03.331Z,94148.94
2018-05-09T02:08:29.845Z,94154.30
2018-05-09T02:10:56.256Z,94128.15
2018-05-09T02:13:22.624Z,94153.76
2018-05-09T02:15:49.004Z,94153.94
2018-05-09T02:18:15.538Z,94143.39
2018-05-09T02:20:41.914Z,94133.84
2018-05-09T02:23:08.359Z,94143.05
2018-05-09T02:25:34.932Z,94143.36
2018-05-09T02:28:01.621Z,94136.88
2018-05-09T02:30:28.041Z,94133.91
2018-05-09T02:32:54.381Z,94135.66
2018-05-09T02:35:20.706Z,94143.86
2018-05-09T02:37:47.230Z,94143.22
2018-05-09T02:40:13.591Z,94127.94
2018-05-09T02:42:39.939Z,94141.81
2018-05-09T02:45:06.280Z,94142.09
2018-05-09T02:47:32.896Z,94134.91
2018-05-09T02:49:59.423Z,94133.11
2018-05-09T02:52:25.838Z,94139.30
2018-05-09T02:54:52.160Z,94125.45
2018-05-09T02:57:18.526Z,94137.27
2018-05-09T02:59:44.886Z,94129.52
2018-05-09T03:02:11.311Z,94129.71
2018-05-09T03:04:37.682Z,94124.84
2018-05-09T03:07:04.012Z,94119.35
2018-05-09T03:09:30.339Z,94124.87
2018-05-09T03:11:56.713Z,94137.34
2018-05-09T03:14:23.041Z,94140.05
2018-05-09T03:16:49.436Z,94137.22
2018-05-09T03:19:16.019Z,94142.89
2018-05-09T03:21:42.548Z,94136.23
2018-05-09T03:24:08.922Z,94150.72
2018-05-09T03:26:35.243Z,94154.39
2018-05-09T03:29:01.626Z,94155.50
2018-05-09T03:31:27.957Z,94151.41
2018-05-09T03:33:54.337Z,94160.00
2018-05-09T03:36:20.679Z,94168.27
2018-05-09T03:38:47.006Z,94166.77
2018-05-09T03:41:13.408Z,94169.17
2018-05-09T03:43:39.900Z,94152.25
2018-05-09T03:46:06.269Z,94156.64
2018-05-09T03:48:32.658Z,94173.38
2018-05-09T03:50:59.292Z,94162.64
2018-05-09T03:53:25.703Z,94154.87
2018-05-09T03:55:51.958Z,94160.53
2018-05-09T03:58:18.377Z,94168.75
2018-05-09T04:00:44.702Z,94167.73
2018-05-09T04:03:11.219Z,94169.44
2018-05-09T04:05:37.577Z,94171.12
2018-05-09T04:08:04.012Z,94174.80
2018-05-09T04:10:30.432Z,94169.99
2018-05-09T04:12:56.957Z,94171.39
2018-05-09T04:15:23.295Z,94176.41
2018-05-09T04:17:49.787Z,94174.80
2018-05-09T04:20:16.200Z,94178.05
2018-05-09T04:22:42.588Z,94175.40
2018-05-09T04:25:08.956Z,94189.22
2018-05-09T04:27:35.542Z,94185.20
2018-05-09T04:30:01.908Z,94186.63
2018-05-09T04:32:28.481Z,94182.70
2018-05-09T04:34:54.890Z,94186.55
2018-05-09T04:37:21.283Z,94187.47
2018-05-09T04:39:47.681Z,94182.34
2018-05-09T04:42:14.080Z,94173.95
2018-05-09T04:44:40.424Z,94186.53
2018-05-09T04:47:06.818Z,94181.73
2018-05-09T04:49:33.208Z,94188.14
2018-05-09T04:51:59.679Z,94175.34
2018-05-09T04:54:26.082Z,94190.16
2018-05-09T04:56:52.449Z,94187.17
2018-05-09T04:59:18.853Z,94167.66
2018-05-09T05:01:45.179Z,94168.32
2018-05-09T05:04:11.583Z,94174.83
2018-05-09T05:06:37.935Z,94173.60
2018-05-09T05:09:04.299Z,94172.38
2018-05-09T05:11:30.650Z,94177.31
2018-05-09T05:13:57.047Z,94171.58
2018-05-09T05:16:23.415Z,94177.86
2018-05-09T05:18:49.785Z,94179.44
2018-05-09T05:21:16.207Z,94164.85
2018-05-09T05:23:42.911Z,94162.02
2018-05-09T05:26:09.400Z,94149.02
2018-05-09T05:28:35.809Z,94161.28
2018-05-09T05:31:02.488Z,94173.91
2018-05-09T05:33:28.838Z,94169.63
2018-05-09T05:35:55.322Z,94180.02
2018-05-09T05:38:21.848Z,94183.18
2018-05-09T05:40:48.356Z,94170.30
2018-05-09T05:43:15.116Z,94158.67
2018-05-09T05:45:41.672Z,94180.41
2018-05-09T05:48:08.429Z,94170.20
2018-05-09T05:50:34.873Z,94163.16
2018-05-09T05:53:01.315Z,94162.33
2018-05-09T05:55:27.733Z,94168.55
2018-05-09T05:57:54.189Z,94177.15
2018-05-09T06:00:21.694Z,94164.77
2018-05-09T06:02:48.127Z,94171.62
2018-05-09T06:05:14.572Z,94175.52
2018-05-09T06:07:40.925Z,94180.74
2018-05-09T06:10:07.476Z,94180.96
2018-05-09T06:12:33.947Z,94168.19
2018-05-09T06:15:00.355Z,94157.99
2018-05-09T06:17:26.976Z,94162.53
2018-05-09T06:19:53.830Z,94166.83
2018-05-09T06:22:20.628Z,94159.25
2018-05-09T06:24:47.029Z,94167.38
2018-05-09T06:27:13.423Z,94166.54
2018-05-09T06:29:40.159Z,94161.30
2018-05-09T06:32:07.194Z,94154.44
2018-05-09T06:34:34.013Z,94165.52
2018-05-09T06:37:00.496Z,94163.27
2018-05-09T06:39:26.984Z,94174.47
2018-05-09T06:41:53.672Z,94172.23
2018-05-09T06:44:20.167Z,94165.84
2018-05-09T06:46:46.612Z,94179.58
2018-05-09T06:49:13.336Z,94180.01
2018-05-09T06:51:39.807Z,94172.98
2018-05-09T06:54:06.421Z,94159.73
2018-05-09T06:56:32.891Z,94172.54
2018-05-09T06:58:59.684Z,94146.11
2018-05-09T07:01:26.360Z,94171.13
2018-05-09T07:03:53.098Z,94173.84
2018-05-09T07:06:19.697Z,94162.82
2018-05-09T07:08:46.035Z,94174.76
2018-05-09T07:11:12.575Z,94174.83
2018-05-09T07:13:38.947Z,94152.19
2018-05-09T07:16:07.648Z,94169.32
2018-05-09T07:18:34.454Z,94169.94
2018-05-09T07:21:02.421Z,94170.17
2018-05-09T07:23:29.555Z,94155.11
2018-05-09T07:25:56.011Z,94163.20
2018-05-09T07:28:22.570Z,94158.72
2018-05-09T07:30:49.052Z,94163.98
2018-05-09T07:33:15.653Z,94165.98
2018-05-09T07:35:42.099Z,94166.62
2018-05-09T07:38:08.443Z,94167.72
2018-05-09T07:40:34.866Z,94168.06
2018-05-09T07:43:01.283Z,94156.09
2018-05-09T07:45:27.748Z,94167.82
2018-05-09T07:47:54.474Z,94171.19
2018-05-09T07:50:21.103Z,94159.89
2018-05-09T07:52:47.644Z,94158.25
2018-05-09T07:55:15.719Z,94145.94
2018-05-09T07:57:42.109Z,94135.70
2018-05-09T08:00:08.550Z,94144.62
2018-05-09T08:02:35.058Z,94144.61
2018-05-09T08:05:01.605Z,94140.05
2018-05-09T08:07:28.181Z,94134.56
2018-05-09T08:09:54.663Z,94147.66
2018-05-09T08:12:21.013Z,94150.74
2018-05-09T08:14:47.709Z,94150.05
2018-05-09T08:17:14.292Z,94138.83
2018-05-09T08:19:40.683Z,94134.95
2018-05-09T08:22:07.122Z,94129.20
2018-05-09T08:24:33.471Z,94116.26
2018-05-09T08:27:00.052Z,94134.88
2018-05-09T08:29:26.431Z,94134.68
2018-05-09T08:31:53.340Z,94125.08
2018-05-09T08:34:20.843Z,94123.47
2018-05-09T08:36:47.554Z,94141.31
2018-05-09T08:39:14.033Z,94134.03
2018-05-09T08:41:40.535Z,94128.38
2018-05-09T08:44:07.110Z,94113.10
2018-05-09T08:46:33.820Z,94115.50
2018-05-09T08:49:00.210Z,94127.74
2018-05-09T08:51:26.613Z,94119.84
2018-05-09T08:53:53.121Z,94134.97
2018-05-09T08:56:19.609Z,94092.23
2018-05-09T08:58:46.035Z,94122.85
2018-05-09T09:01:12.849Z,94125.16
2018-05-09T09:03:39.302Z,94106.59
2018-05-09T09:06:05.921Z,94124.75
2018-05-09T09:08:32.317Z,94109.50
2018-05-09T09:10:59.028Z,94124.58
2018-05-09T09:13:25.746Z,94112.88
2018-05-09T09:15:52.320Z,94124.13
2018-05-09T09:18:18.934Z,94108.20
2018-05-09T09:20:45.481Z,94104.76
2018-05-09T09:23:12.684Z,94110.94
2018-05-09T09:25:39.060Z,94107.20
2018-05-09T09:28:06.677Z,94102.13
2018-05-09T09:30:33.190Z,94102.05
2018-05-09T09:32:59.667Z,94095.33
2018-05-09T09:35:26.194Z,94095.66
2018-05-09T09:37:52.813Z,94100.38
2018-05-09T09:40:19.488Z,94094.47
2018-05-09T09:42:46.037Z,94093.58
2018-05-09T09:45:12.412Z,94083.39
2018-05-09T09:47:38.792Z,94082.77
2018-05-09T09:50:05.240Z,94063.30
2018-05-09T09:52:31.948Z,94080.17
2018-05-09T09:54:58.440Z,94074.80
2018-05-09T09:57:24.956Z,94080.47
2018-05-09T09:59:51.399Z,94068.49
2018-05-09T10:02:17.809Z,94071.41
2018-05-09T10:04:44.657Z,94069.86
2018-05-09T10:07:11.182Z,94055.84
2018-05-09T10:09:38.062Z,94074.81
2018-05-09T10:12:04.794Z,94072.66
2018-05-09T10:14:31.447Z,94054.16
2018-05-09T10:16:58.347Z,94061.60
2018-05-09T10:19:24.862Z,94065.31
2018-05-09T10:21:51.337Z,94056.07
2018-05-09T10:24:17.736Z,94049.38
2018-05-09T10:26:44.195Z,94070.84
2018-05-09T10:29:10.935Z,94047.12
2018-05-09T10:31:37.614Z,94047.66
2018-05-09T10:34:04.399Z,94049.48
2018-05-09T10:36:31.089Z,94049.80
2018-05-09T10:38:57.864Z,94042.04
2018-05-09T10:41:24.593Z,94046.71
2018-05-09T10:43:51.277Z,94041.39
2018-05-09T10:46:17.944Z,94030.58
2018-05-09T10:48:44.404Z,94040.52
2018-05-09T10:51:13.998Z,94038.06
2018-05-09T10:53:40.911Z,94040.06
2018-05-09T10:56:07.485Z,94018.93
2018-05-09T10:58:34.213Z,94034.42
2018-05-09T11:01:01.047Z,94035.62
2018-05-09T11:03:29.416Z,94037.80
2018-05-09T11:05:56.303Z,94036.89
2018-05-09T11:08:22.918Z,94033.05
2018-05-09T11:10:49.277Z,94038.40
2018-05-09T11:13:15.670Z,94010.14
2018-05-09T11:15:42.084Z,94025.87
2018-05-09T11:18:08.601Z,94018.42
2018-05-09T11:20:35.695Z,94009.84
2018-05-09T11:23:02.077Z,94025.30
2018-05-09T11:25:28.745Z,94014.20
2018-05-09T11:27:55.172Z,94001.59
2018-05-09T11:30:21.664Z,94013.34
2018-05-09T11:32:48.107Z,94004.59
2018-05-09T11:35:14.472Z,93999.67
2018-05-09T11:37:41.413Z,93999.66
2018-05-09T11:40:07.749Z,93983.71
2018-05-09T11:42:34.199Z,93994.42
2018-05-09T11:45:00.619Z,93978.71
2018-05-09T11:47:27.253Z,93998.86
2018-05-09T11:49:53.649Z,93988.84
2018-05-09T11:52:20.105Z,93997.78
2018-05-09T11:54:46.873Z,93984.59
2018-05-09T11:57:14.056Z,93966.44
2018-05-09T11:59:41.230Z,93976.63
2018-05-09T12:02:07.799Z,93971.61
2018-05-09T12:04:35.436Z,93956.23
2018-05-09T12:07:02.672Z,93948.92
2018-05-09T12:09:29.083Z,93959.86
2018-05-09T12:11:55.463Z,93966.99
2018-05-09T12:14:21.977Z,93955.52
2018-05-09T12:16:48.324Z,93951.65
2018-05-09T12:19:14.726Z,93944.86
2018-05-09T12:21:41.098Z,93951.42
2018-05-09T12:24:07.518Z,93929.41
2018-05-09T12:26:33.891Z,93951.33
2018-05-09T12:29:00.394Z,93943.16
2018-05-09T12:31:26.772Z,93945.90
2018-05-09T12:33:53.140Z,93934.18
2018-05-09T12:36:19.560Z,93929.41
2018-05-09T12:38:45.912Z,93940.16
2018-05-09T12:41:12.282Z,93936.19
2018-05-09T12:43:38.642Z,93932.58
2018-05-09T12:46:05.051Z,93920.42
2018-05-09T12:48:31.638Z,93933.93
2018-05-09T12:50:57.958Z,93942.05
2018-05-09T12:53:24.578Z,93931.91
2018-05-09T12:55:51.197Z,93921.82
2018-05-09T12:58:21.699Z,93903.89
2018-05-09T13:00:48.244Z,93922.89
2018-05-09T13:03:14.764Z,93900.48
2018-05-09T13:05:41.238Z,93914.22
2018-05-09T13:08:07.766Z,93924.43
2018-05-09T13:10:34.127Z,93910.91
2018-05-09T13:13:00.536Z,93904.29
2018-05-09T13:15:26.908Z,93916.28
2018-05-09T13:17:53.237Z,93895.55
2018-05-09T13:20:19.687Z,93904.70
2018-05-09T13:22:46.088Z,93911.02
2018-05-09T13:25:12.550Z,93882.31
2018-05-09T13:27:38.978Z,93897.73
2018-05-09T13:30:05.345Z,93900.25
2018-05-09T13:32:31.689Z,93894.05
2018-05-09T13:34:58.068Z,93887.00
2018-05-09T13:37:24.742Z,93901.78
2018-05-09T13:39:51.178Z,93884.50
2018-05-09T13:42:17.535Z,93895.66
2018-05-09T13:44:43.886Z,93881.10
2018-05-09T13:47:10.352Z,93901.08
2018-05-09T13:49:36.733Z,93886.59
2018-05-09T13:52:03.130Z,93894.27
2018-05-09T13:54:29.542Z,93883.93
2018-05-09T13:56:55.978Z,93888.53
2018-05-09T13:59:22.361Z,93868.72
2018-05-09T14:01:48.878Z,93882.63
2018-05-09T14:04:15.567Z,93862.80
2018-05-09T14:06:42.030Z,93884.66
2018-05-09T14:09:08.469Z,93875.77
2018-05-09T14:11:34.939Z,93870.89
2018-05-09T14:14:01.325Z,93896.94
2018-05-09T14:16:27.683Z,93887.31
2018-05-09T14:18:54.103Z,93868.72
2018-05-09T14:21:20.473Z,93886.44
2018-05-09T14:23:46.864Z,93882.97
2018-05-09T14:26:13.260Z,93880.30
2018-05-09T14:28:39.658Z,93886.17
2018-05-09T14:31:06.008Z,93877.70
2018-05-09T14:33:32.353Z,93891.45
2018-05-09T14:35:58.762Z,93878.61
2018-05-09T14:38:25.152Z,93883.45
2018-05-09T14:40:51.577Z,93877.55
2018-05-09T14:43:17.981Z,93853.98
2018-05-09T14:45:44.564Z,93891.61
2018-05-09T14:48:11.062Z,93891.94
2018-05-09T14:50:37.628Z,93886.02
2018-05-09T14:53:06.709Z,93878.36
2018-05-09T14:55:33.191Z,93883.34
2018-05-09T14:57:59.605Z,93881.02
2018-05-09T15:00:26.004Z,93887.51
2018-05-09T15:02:52.374Z,93888.44
2018-05-09T15:05:18.739Z,93888.45
2018-05-09T15:07:45.482Z,93891.91
2018-05-09T15:10:12.199Z,93887.61
2018-05-09T15:12:38.581Z,93880.32
2018-05-09T15:15:05.133Z,93894.16
2018-05-09T15:17:31.562Z,93886.80
2018-05-09T15:19:58.064Z,93887.61
2018-05-09T15:22:24.478Z,93894.42
2018-05-09T15:24:50.823Z,93906.41
2018-05-09T15:27:17.229Z,93905.45
2018-05-09T15:29:43.545Z,93906.91
2018-05-09T15:32:09.998Z,93909.14
2018-05-09T15:34:36.499Z,93909.48
2018-05-09T15:37:03.048Z,93906.66
2018-05-09T15:39:29.431Z,93891.13
2018-05-09T15:41:56.010Z,93910.22
2018-05-09T15:44:22.408Z,93909.81
2018-05-09T15:46:48.894Z,93910.84
2018-05-09T15:49:15.377Z,93909.16
2018-05-09T15:51:41.732Z,93908.73
2018-05-09T15:54:08.061Z,93908.80
2018-05-09T15:56:34.611Z,93918.27
2018-05-09T15:59:01.037Z,93916.80
2018-05-09T16:01:27.376Z,93934.26
2018-05-09T16:03:53.774Z,93917.67
2018-05-09T16:06:20.156Z,93924.77
2018-05-09T16:08:46.561Z,93928.34
2018-05-09T16:11:13.015Z,93930.57
2018-05-09T16:13:39.352Z,93942.16
2018-05-09T16:16:05.727Z,93942.28
2018-05-09T16:18:32.400Z,93932.03
2018-05-09T16:20:58.758Z,93947.79
2018-05-09T16:23:25.163Z,93934.05
2018-05-09T16:25:51.626Z,93948.25
2018-05-09T16:28:18.005Z,93938.36
2018-05-09T16:30:44.464Z,93950.84
2018-05-09T16:33:10.838Z,93949.06
2018-05-09T16:35:37.205Z,93949.76
2018-05-09T16:38:03.533Z,93952.68
2018-05-09T16:40:29.856Z,93961.65
2018-05-09T16:42:56.355Z,93956.03
2018-05-09T16:45:22.680Z,93954.44
2018-05-09T16:47:49.000Z,93963.23
2018-05-09T16:50:15.345Z,93964.98
2018-05-09T16:52:41.684Z,93968.14
2018-05-09T16:55:08.107Z,93971.89
2018-05-09T16:57:34.486Z,93975.23
2018-05-09T17:00:00.851Z,93975.64
2018-05-09T17:02:27.283Z,93977.56
2018-05-09T17:04:53.676Z,93985.95
2018-05-09T17:07:20.087Z,93991.45
2018-05-09T17:09:46.354Z,93997.13
2018-05-09T17:12:12.717Z,93998.01
2018-05-09T17:14:39.129Z,93996.17
2018-05-09T17:17:05.628Z,94010.26
2018-05-09T17:19:32.034Z,94010.64
2018-05-09T17:21:58.393Z,94012.58
2018-05-09T17:24:24.765Z,94020.90
2018-05-09T17:26:51.127Z,94024.64
2018-05-09T17:29:17.481Z,94020.45
2018-05-09T17:31:43.892Z,94023.27
2018-05-09T17:34:10.249Z,94023.51
2018-05-09T17:36:36.694Z,94018.75
2018-05-09T17:39:03.074Z,94029.92
2018-05-09T17:41:29.547Z,94025.47
2018-05-09T17:43:55.877Z,94035.59
2018-05-09T17:46:22.229Z,94030.42
2018-05-09T17:48:48.557Z,94035.09
2018-05-09T17:51:14.902Z,94045.22
2018-05-09T17:53:41.236Z,94037.50
2018-05-09T17:56:07.628Z,94041.64
2018-05-09T17:58:34.046Z,94041.91
2018-05-09T18:01:00.364Z,94046.91
2018-05-09T18:03:26.724Z,94054.25
2018-05-09T18:05:53.059Z,94037.67
2018-05-09T18:08:19.517Z,94047.79
2018-05-09T18:10:45.928Z,94045.86
2018-05-09T18:13:12.271Z,94052.17
2018-05-09T18:15:38.655Z,94045.84
2018-05-09T18:18:05.016Z,94054.47
2018-05-09T18:20:31.398Z,94062.15
2018-05-09T18:22:57.726Z,94059.63
2018-05-09T18:25:25.954Z,94067.80
2018-05-09T18:27:52.407Z,94071.88
2018-05-09T18:30:18.875Z,94073.82
2018-05-09T18:32:45.354Z,94067.23
2018-05-09T18:35:11.778Z,94083.10
2018-05-09T18:37:38.095Z,94080.52
2018-05-09T18:40:04.460Z,94075.84
2018-05-09T18:42:30.837Z,94089.36
2018-05-09T18:44:57.225Z,94092.42
2018-05-09T18:47:23.709Z,94088.75
2018-05-09T18:49:50.173Z,94093.58
2018-05-09T18:52:16.591Z,94100.14
2018-05-09T18:54:43.232Z,94098.41
2018-05-09T18:57:09.977Z,94100.14
2018-05-09T18:59:36.425Z,94099.97
2018-05-09T19:02:02.915Z,94095.52
2018-05-09T19:04:29.271Z,94104.86
2018-05-09T19:06:55.600Z,94081.11
2018-05-09T19:09:22.013Z,94096.02
2018-05-09T19:11:48.452Z,94092.45
2018-05-09T19:14:14.779Z,94091.58
2018-05-09T19:16:41.164Z,94094.94
2018-05-09T19:19:07.512Z,94089.59
2018-05-09T19:21:34.053Z,94098.50
2018-05-09T19:24:00.389Z,94100.67
2018-05-09T19:26:26.783Z,94101.09
2018-05-09T19:28:53.215Z,94109.25
2018-05-09T19:31:19.604Z,94107.44
2018-05-09T19:33:46.028Z,94101.77
2018-05-09T19:36:12.531Z,94101.05
2018-05-09T19:38:38.997Z,94105.94
2018-05-09T19:41:05.234Z,94107.70
2018-05-09T19:43:32.629Z,94115.83
2018-05-09T19:45:59.000Z,94114.16
2018-05-09T19:48:26.316Z,94116.13
2018-05-09T19:50:52.708Z,94110.56
2018-05-09T19:53:19.081Z,94119.29
2018-05-09T19:55:46.431Z,94118.30
2018-05-09T19:58:12.787Z,94116.44
2018-05-09T20:00:39.176Z,94123.47
2018-05-09T20:03:07.563Z,94120.70
2018-05-09T20:05:33.893Z,94119.42
2018-05-09T20:08:00.275Z,94131.92
2018-05-09T20:10:26.649Z,94134.98
2018-05-09T20:12:52.967Z,94125.55
2018-05-09T20:15:19.343Z,94121.69
2018-05-09T20:17:46.187Z,94136.03
2018-05-09T20:20:13.537Z,94131.87
2018-05-09T20:22:39.956Z,94142.92
2018-05-09T20:25:06.293Z,94136.09
2018-05-09T20:27:32.726Z,94126.56
2018-05-09T20:29:59.056Z,94131.03
2018-05-09T20:32:25.393Z,94132.33
2018-05-09T20:34:51.725Z,94131.10
2018-05-09T20:37:18.088Z,94132.39
2018-05-09T20:39:44.453Z,94123.25
2018-05-09T20:42:10.780Z,94132.39
2018-05-09T20:44:37.127Z,94125.25
2018-05-09T20:47:03.518Z,94141.67
2018-05-09T20:49:29.865Z,94131.61
2018-05-09T20:51:56.205Z,94126.44
2018-05-09T20:54:22.524Z,94126.27
2018-05-09T20:56:48.863Z,94143.55
2018-05-09T20:59:16.225Z,94132.64
2018-05-09T21:01:42.596Z,94130.25
2018-05-09T21:04:08.940Z,94135.47
2018-05-09T21:06:35.261Z,94137.88
2018-05-09T21:09:01.593Z,94131.95
2018-05-09T21:11:27.915Z,94137.54
2018-05-09T21:13:54.287Z,94143.51
2018-05-09T21:16:20.613Z,94136.01
2018-05-09T21:18:46.952Z,94147.41
2018-05-09T21:21:13.288Z,94155.14
2018-05-09T21:23:39.639Z,94143.77
2018-05-09T21:26:05.984Z,94149.06
2018-05-09T21:28:32.375Z,94153.92
2018-05-09T21:30:58.721Z,94148.41
2018-05-09T21:33:25.095Z,94150.34
2018-05-09T21:35:51.486Z,94152.05
2018-05-09T21:38:17.857Z,94147.77
2018-05-09T21:40:44.239Z,94165.90
2018-05-09T21:43:10.592Z,94155.92
2018-05-09T21:45:36.970Z,94157.39
2018-05-09T21:48:03.368Z,94158.27
2018-05-09T21:50:29.712Z,94159.97
2018-05-09T21:52:56.124Z,94154.70
2018-05-09T21:55:22.464Z,94138.34
2018-05-09T21:57:48.884Z,94149.06
2018-05-09T22:00:15.242Z,94145.21
2018-05-09T22:02:41.609Z,94138.27
2018-05-09T22:05:07.960Z,94130.08
2018-05-09T22:07:34.372Z,94127.22
2018-05-09T22:10:00.714Z,94137.59
2018-05-09T22:12:27.076Z,94131.50
2018-05-09T22:14:53.424Z,94134.29
2018-05-09T22:17:19.749Z,94132.06
2018-05-09T22:19:46.184Z,94138.11
2018-05-09T22:22:12.492Z,94146.38
2018-05-09T22:24:38.851Z,94123.87
2018-05-09T22:27:05.177Z,94122.29
2018-05-09T22:29:31.521Z,94117.06
2018-05-09T22:31:57.889Z,94126.39
2018-05-09T22:34:24.224Z,94132.25
2018-05-09T22:36:50.569Z,94124.03
2018-05-09T22:39:16.985Z,94119.71
2018-05-09T22:41:43.312Z,94126.52
2018-05-09T22:44:09.669Z,94130.55
2018-05-09T22:46:36.035Z,94134.84
2018-05-09T22:49:02.395Z,94128.67
2018-05-09T22:51:28.714Z,94128.56
2018-05-09T22:53:55.047Z,94134.13
2018-05-09T22:56:21.540Z,94138.38
2018-05-09T22:58:47.868Z,94136.70
2018-05-09T23:01:14.197Z,94151.12
2018-05-09T23:03:40.516Z,94148.55
2018-05-09T23:06:06.905Z,94138.79
2018-05-09T23:08:33.284Z,94148.66
2018-05-09T23:10:59.645Z,94145.31
2018-05-09T23:13:26.012Z,94147.30
2018-05-09T23:15:52.395Z,94157.32
2018-05-09T23:18:18.717Z,94154.79
2018-05-09T23:20:45.064Z,94164.94
2018-05-09T23:23:11.455Z,94147.60
2018-05-09T23:25:37.813Z,94156.86
2018-05-09T23:28:04.175Z,94155.14
2018-05-09T23:30:30.498Z,94164.06
2018-05-09T23:32:56.886Z,94159.02
2018-05-09T23:35:23.241Z,94158.95
2018-05-09T23:37:49.622Z,94160.30
2018-05-09T23:40:16.000Z,94163.42
2018-05-09T23:42:42.363Z,94165.05
2018-05-09T23:45:08.813Z,94157.39
2018-05-09T23:47:35.144Z,94158.25
2018-05-09T23:50:01.469Z,94164.06
2018-05-09T23:52:27.839Z,94168.05
2018-05-09T23:54:54.226Z,94166.28
2018-05-09T23:57:20.551Z,94160.47
2018-05-09T23:59:46.873Z,94154.85
